AirNav   Pilot Hours Calculator
 
 479 users online  

4SC7 Wexford Landing Airport
Aiken, South Carolina, USA

GOING TO AIKEN?


FAA INFORMATION EFFECTIVE 03 NOVEMBER 2022

Location

FAA Identifier: 4SC7
Lat/Long: 33-35-23.0000N 081-30-09.0000W
33-35.383333N 081-30.150000W
33.5897222,-81.5025000
(estimated)
Elevation: 400 ft. / 122 m (estimated)
From city: 11 miles ENE of AIKEN, SC
Time zone: UTC -5 (UTC -4 during Daylight Saving Time)
Zip code: 29164

Airport Operations

Airport use: Private use. Permission required prior to landing
Activation date: 08/2003
Control tower: no
ARTCC: JACKSONVILLE CENTER
FSS: ANDERSON FLIGHT SERVICE STATION
Attendance: UNATNDD
Segmented circle: no

Airport Communications

WX AWOS-3 at AIK (10 nm W): 118.025 (803-643-8664)

Nearby radio navigation aids

VOR radial/distance  VOR name  Freq  Var
CAEr236/27.5COLUMBIA VORTAC114.7002W
IRQr106/33.7COLLIERS VORTAC113.9004W
ALDr344/(36.2)ALLENDALE VOR116.7001W

 
NDB name  Hdg/Dist  Freq  Var  ID
AIKEN119/9.534706WAIK .- .. -.-
EMORY077/25.938504WEMR . -- .-.

Airport Services

Runway Information

Runway 4/22

Dimensions: 4200 x 200 ft. / 1280 x 61 m
Surface: turf
RUNWAY 4  RUNWAY 22
Traffic pattern: leftleft

Airport Ownership and Management from official FAA records

Ownership: Privately-owned
Owner: WEXFORD LANDING HOMEOWNER ASSC
POC - ROBERT BENNETT 606 BURKELO RD
WAGENER, SC 29164
Phone (951) 675-3142
Manager: LEONARD SELF
586 BURKELO ROAD
WAGENER, SC 29164
Phone 803-317-9627

Additional Remarks

250 FT TWR 7207 FT NNE OF ARPT RWY 22, LIGHTED.
250 FT TWR 1940 FT SE RWY 4, LIGHTED.
HIGH VOLTAGE PWR LINE 950 FT FM EOR 22 W TO E - MKD WITH ORANGE BALLS.
FOR CD CTC ATLANTA ARTCC AT 770-210-7692.

Instrument Procedures

There are no published instrument procedures at 4SC7.

Some nearby airports with instrument procedures:

KAIK - Aiken Regional Airport (10 nm W)
6J0 - Lexington County Airport (18 nm NE)
KBNL - Barnwell Regional Airport (21 nm S)
KXNO - North Air Force Auxiliary Field (21 nm E)
6J4 - Saluda County Airport (25 nm NW)
 
Loc | Ops | Rwys | IFR | FBO | Links
Com | Nav | Svcs | Stats | Notes
Area around 4SC7 (Wexford Landing Airport)
 
Road maps at: MapQuest Bing Google
 
Aerial photo
WARNING: Photo may not be current or correct
Aerial photo of 4SC7 (Wexford Landing Airport)
Photo taken 29-Jul-2011

Do you have a better or more recent aerial photo of Wexford Landing Airport that you would like to share? If so, please send us your photo.

 
Sectional chart

 
Airport distance calculator
Flying to Wexford Landing Airport? Find the distance to fly.

From to 4SC7

Sunrise and sunset
Times for 29-Nov-2022
 Local
(UTC-5)
 Zulu
(UTC)
Morning civil twilight06:4411:44
Sunrise07:1212:12
Sunset17:1722:17
Evening civil twilight17:4422:44

Current date and time
Zulu (UTC)  29-Nov-2022 09:16:51
Local (UTC-5)  29-Nov-2022 04:16:51
 
METAR
KAIK 
10nm W 
290855Z AUTO 00000KT 10SM CLR 04/04 A3011 RMK AO2 T00440036
TAF
KAGS 
27nm SW 
290804Z 2908/3006 00000KT 2SM BR SKC TEMPO 2909/2913 3/4SM BR VV002 FM291300 12005KT P6SM SKC
KDNL 
28nm W 
290530Z 2906/3006 00000KT P6SM SKC FM291500 12005KT P6SM SKC
KCAE 
28nm NE 
290530Z 2906/3006 00000KT P6SM SKC FM291500 12005KT P6SM SKC
KOGB 
33nm E 
290530Z 2906/3006 00000KT P6SM SKC FM290800 00000KT 4SM BR SKC TEMPO 2909/2913 1SM BR SCT002 FM291500 12005KT P6SM SKC
NOTAMs
Click for the latest NOTAMs
NOTAMs are issued by the DoD/FAA and will open in a separate window not controlled by AirNav.

 

 
 

Would you like to see your business listed on this page?

 If your business provides an interesting product or service to pilots, flight crews, aircraft, or users of the Wexford Landing Airport, you should consider listing it here.  To start the listing process, click on the button below
 
Add a business
 

Other Pages about Wexford Landing Airport

Update a link
 
Copyright © AirNav, LLC. All rights reserved. Privacy Policy  Contact